Time;durP1;ratioP1;P1;durP2;ratioP2;P2;SDS_P1;SDS_P2;PMS_P1;PMS_P2;Temp;Humidity;BMP_temperature;BMP_pressure;BME280_temperature;BME280_humidity;BME280_pressure;Samples;Min_cycle;Max_cycle;Signal;HPM_P1;HPM_P2
2024/02/13 00:01:15;;;;;;;10.88;5.00;;;;;;;12.17;57.56;98748.13;5073396;28;20487;-48
2024/02/13 00:03:41;;;;;;;10.70;4.80;;;;;;;12.16;58.06;98754.41;5073454;28;20036;-49
2024/02/13 00:06:08;;;;;;;14.45;5.03;;;;;;;12.11;57.85;98759.47;5072283;28;20036;-49
2024/02/13 00:08:34;;;;;;;9.43;4.00;;;;;;;12.17;58.08;98759.47;5072132;28;20394;-48
2024/02/13 00:11:04;;;;;;;9.52;4.53;;;;;;;12.25;57.69;98770.78;5073247;28;20090;-48
2024/02/13 00:13:30;;;;;;;16.02;4.78;;;;;;;12.25;57.28;98774.19;5073206;28;20025;-49
2024/02/13 00:15:56;;;;;;;11.90;4.22;;;;;;;12.21;57.43;98783.53;5073157;28;20021;-48
2024/02/13 00:18:21;;;;;;;13.82;4.03;;;;;;;12.11;57.22;98786.63;5072693;28;20056;-49
2024/02/13 00:20:47;;;;;;;9.38;4.40;;;;;;;12.03;57.40;98788.66;5071843;28;20379;-48
2024/02/13 00:23:15;;;;;;;6.78;3.80;;;;;;;11.90;57.56;98795.56;5073039;28;20028;-48
2024/02/13 00:25:41;;;;;;;10.10;4.00;;;;;;;11.89;57.63;98798.41;5072898;28;20021;-49
2024/02/13 00:28:07;;;;;;;9.93;3.60;;;;;;;11.95;57.26;98803.66;5071660;28;20398;-48
2024/02/13 00:30:35;;;;;;;8.00;3.53;;;;;;;12.02;57.91;98808.91;5071527;28;20086;-48
2024/02/13 00:33:01;;;;;;;12.15;4.43;;;;;;;12.09;57.49;98808.88;5071554;28;20107;-49
2024/02/13 00:35:27;;;;;;;11.75;3.60;;;;;;;12.11;56.88;98807.66;5072767;28;20059;-49
2024/02/13 00:37:52;;;;;;;8.93;3.38;;;;;;;12.14;56.90;98809.88;5072748;28;20052;-48
2024/02/13 00:40:18;;;;;;;11.80;3.80;;;;;;;12.22;56.81;98811.47;5072776;28;20029;-48
2024/02/13 00:42:44;;;;;;;10.20;3.60;;;;;;;12.28;56.38;98812.47;5072722;28;20056;-48
2024/02/13 00:45:11;;;;;;;8.90;3.30;;;;;;;12.08;55.76;98826.47;5054565;28;20032;-49
2024/02/13 00:47:40;;;;;;;9.85;3.00;;;;;;;11.86;56.93;98827.72;5072775;28;20028;-48
2024/02/13 00:50:08;;;;;;;8.52;3.08;;;;;;;11.96;57.63;98830.75;5072524;28;20111;-48
2024/02/13 00:52:34;;;;;;;7.75;3.15;;;;;;;12.17;57.45;98833.16;5072453;28;20044;-48
2024/02/13 00:54:59;;;;;;;8.77;3.45;;;;;;;12.33;56.82;98836.31;5072444;28;20020;-48
2024/02/13 00:57:28;;;;;;;9.45;3.15;;;;;;;12.30;56.27;98832.28;5071036;28;20093;-48
2024/02/13 00:59:54;;;;;;;8.48;2.80;;;;;;;12.36;56.13;98834.09;5072551;28;20513;-48
2024/02/13 01:02:20;;;;;;;9.38;3.10;;;;;;;12.27;55.84;98834.53;5072277;28;20032;-48
2024/02/13 01:04:47;;;;;;;6.35;2.60;;;;;;;12.13;56.41;98836.38;5072228;28;20046;-49
2024/02/13 01:07:13;;;;;;;11.48;3.30;;;;;;;12.07;56.58;98843.28;5072126;28;20021;-48
2024/02/13 01:09:39;;;;;;;9.52;2.83;;;;;;;12.03;56.99;98842.06;5072116;28;20024;-49
2024/02/13 01:12:05;;;;;;;8.70;2.83;;;;;;;12.10;57.50;98837.59;5070783;28;20111;-48
2024/02/13 01:14:31;;;;;;;11.65;3.22;;;;;;;12.11;56.88;98849.75;5072404;28;20100;-49
2024/02/13 01:16:57;;;;;;;6.53;2.67;;;;;;;12.06;56.87;98848.75;5070540;28;20072;-49
2024/02/13 01:19:22;;;;;;;8.23;2.55;;;;;;;12.05;57.07;98855.81;5071993;28;20032;-48
2024/02/13 01:21:49;;;;;;;7.18;2.72;;;;;;;11.93;57.14;98857.47;5070665;28;20568;-48
2024/02/13 01:24:15;;;;;;;6.63;2.65;;;;;;;11.80;57.32;98853.81;5071993;28;20025;-49
2024/02/13 01:26:43;;;;;;;8.93;2.97;;;;;;;11.69;58.03;98857.06;5071843;28;20035;-48
2024/02/13 01:29:10;;;;;;;12.02;3.08;;;;;;;11.56;58.33;98859.69;5072143;28;20032;-48
2024/02/13 01:31:37;;;;;;;8.98;3.03;;;;;;;11.41;58.84;98867.78;5071808;28;20025;-49
2024/02/13 01:34:03;;;;;;;8.95;3.83;;;;;;;11.33;59.07;98866.16;5071798;28;20368;-49
2024/02/13 01:36:29;;;;;;;12.85;3.05;;;;;;;11.30;59.60;98857.84;5071817;28;20085;-48
2024/02/13 01:38:59;;;;;;;11.75;2.83;;;;;;;11.23;59.59;98878.88;5071779;28;20012;-49
2024/02/13 01:41:25;;;;;;;6.88;3.22;;;;;;;11.10;59.75;98869.13;5071820;28;20024;-48
2024/02/13 01:43:52;;;;;;;7.88;2.70;;;;;;;10.91;60.16;98881.22;5071651;28;20032;-49
2024/02/13 01:46:19;;;;;;;12.65;3.90;;;;;;;10.82;60.58;98882.38;5071639;28;20070;-48
2024/02/13 01:48:46;;;;;;;8.85;3.53;;;;;;;10.83;60.99;98878.75;5071574;28;20040;-49
2024/02/13 01:51:15;;;;;;;8.95;3.35;;;;;;;10.74;60.76;98875.47;5071679;28;20020;-46
2024/02/13 01:53:42;;;;;;;6.60;2.95;;;;;;;10.42;60.84;98876.97;5071601;28;20087;-47
2024/02/13 01:56:09;;;;;;;10.63;3.00;;;;;;;10.13;61.56;98881.44;5071532;28;20069;-46
2024/02/13 01:58:36;;;;;;;7.53;2.90;;;;;;;9.91;62.20;98878.06;5073866;28;20060;-47
2024/02/13 02:01:03;;;;;;;12.20;3.60;;;;;;;9.70;62.42;98876.31;5075782;28;20028;-47
2024/02/13 02:03:32;;;;;;;8.45;3.13;;;;;;;9.53;63.22;98882.78;5075756;28;20013;-46
2024/02/13 02:05:59;;;;;;;772.70;691.97;;;;;;;9.40;63.96;98871.22;5075873;28;20028;-46
2024/02/13 02:08:26;;;;;;;103.68;92.70;;;;;;;9.36;64.52;98869.97;5074545;28;20128;-46
2024/02/13 02:10:53;;;;;;;38.85;33.92;;;;;;;9.31;64.79;98880.19;5074210;28;20032;-47
2024/02/13 02:13:19;;;;;;;20.83;11.15;;;;;;;9.25;65.33;98880.94;5075503;28;20025;-47
2024/02/13 02:15:48;;;;;;;15.15;9.65;;;;;;;9.19;65.68;98885.13;5075492;28;20394;-46
2024/02/13 02:18:13;;;;;;;14.18;8.15;;;;;;;9.17;66.07;98889.72;5075027;28;20048;-46
2024/02/13 02:20:39;;;;;;;14.35;6.35;;;;;;;9.16;65.87;98890.72;5075406;28;20099;-47
2024/02/13 02:23:05;;;;;;;11.68;6.25;;;;;;;9.11;66.30;98895.69;5075353;28;20547;-46
2024/02/13 02:25:31;;;;;;;20.33;7.50;;;;;;;9.13;66.56;98898.94;5073951;28;20502;-47
2024/02/13 02:27:56;;;;;;;25.27;11.65;;;;;;;9.20;66.95;98899.81;5075241;28;20387;-47
2024/02/13 02:30:22;;;;;;;28.63;18.73;;;;;;;9.18;66.75;98898.41;5057237;28;20017;-47
2024/02/13 02:32:48;;;;;;;19.05;14.23;;;;;;;9.19;67.18;98900.00;5075138;28;20379;-47
2024/02/13 02:35:16;;;;;;;21.38;11.27;;;;;;;9.31;67.75;98903.75;5074982;28;20542;-46
2024/02/13 02:37:47;;;;;;;13.57;6.32;;;;;;;9.50;67.93;98899.72;5073683;28;20475;-47
2024/02/13 02:40:14;;;;;;;42.13;26.35;;;;;;;9.34;67.33;98892.91;5075031;28;20111;-46
2024/02/13 02:42:40;;;;;;;46.25;30.80;;;;;;;9.31;68.11;98893.28;5074874;28;20030;-47
2024/02/13 02:45:06;;;;;;;49.88;35.75;;;;;;;9.46;68.96;98900.28;5075407;28;20047;-47
2024/02/13 02:47:34;;;;;;;110.47;98.20;;;;;;;9.63;68.76;98891.16;5073518;28;20498;-46
2024/02/13 02:50:00;;;;;;;31.98;27.60;;;;;;;9.84;68.35;98884.25;5074759;28;20035;-46
2024/02/13 02:52:26;;;;;;;32.40;24.40;;;;;;;9.90;67.90;98891.34;5074801;28;20020;-46
2024/02/13 02:54:51;;;;;;;18.65;12.82;;;;;;;9.86;67.51;98896.19;5074738;28;20100;-47
2024/02/13 02:57:17;;;;;;;20.65;15.10;;;;;;;9.86;68.03;98903.22;5074621;28;20095;-47
2024/02/13 02:59:45;;;;;;;19.25;14.88;;;;;;;9.84;67.93;98900.81;5074669;28;20048;-46
2024/02/13 03:02:12;;;;;;;13.02;9.60;;;;;;;9.88;67.71;98902.03;5074536;28;20032;-46
2024/02/13 03:04:38;;;;;;;10.98;4.47;;;;;;;9.84;67.43;98899.97;5074507;28;20024;-46
2024/02/13 03:07:03;;;;;;;8.70;3.35;;;;;;;9.71;67.38;98895.44;5074455;28;20032;-46
2024/02/13 03:09:30;;;;;;;10.30;5.53;;;;;;;9.52;67.43;98908.19;5056489;28;20016;-46
2024/02/13 03:11:55;;;;;;;14.15;7.80;;;;;;;9.33;67.54;98904.38;5074323;28;20025;-46
2024/02/13 03:14:21;;;;;;;14.13;8.73;;;;;;;9.24;68.18;98910.75;5074386;28;20562;-46
2024/02/13 03:16:47;;;;;;;10.40;9.07;;;;;;;9.26;68.78;98914.00;5074281;28;20025;-46
2024/02/13 03:19:13;;;;;;;9.63;3.97;;;;;;;9.33;68.69;98908.81;5072626;28;20059;-46
2024/02/13 03:21:39;;;;;;;16.95;6.82;;;;;;;9.38;68.73;98911.69;5072929;28;20077;-46
2024/02/13 03:24:05;;;;;;;11.93;4.43;;;;;;;9.42;68.47;98914.72;5074230;28;20508;-46
2024/02/13 03:26:32;;;;;;;11.63;4.47;;;;;;;9.48;68.94;98922.66;5073047;28;20024;-46
2024/02/13 03:28:57;;;;;;;10.52;4.60;;;;;;;9.51;68.67;98921.47;5074156;28;20054;-46
2024/02/13 03:31:24;;;;;;;10.93;4.53;;;;;;;9.50;68.65;98927.72;5072753;28;20028;-46
2024/02/13 03:33:50;;;;;;;13.05;5.38;;;;;;;9.57;68.58;98925.97;5073997;28;20021;-46
2024/02/13 03:36:17;;;;;;;15.48;4.78;;;;;;;9.56;67.94;98919.91;5073900;28;20082;-46
2024/02/13 03:38:48;;;;;;;7.75;3.38;;;;;;;9.66;68.29;98919.59;5073857;28;20106;-46
2024/02/13 03:41:14;;;;;;;13.40;6.57;;;;;;;9.75;68.01;98922.91;5073890;28;20028;-46
2024/02/13 03:43:43;;;;;;;6.88;3.42;;;;;;;9.75;67.66;98925.50;5072557;28;20399;-46
2024/02/13 03:46:10;;;;;;;10.88;3.83;;;;;;;9.75;67.77;98931.56;5056297;28;20115;-46
2024/02/13 03:48:36;;;;;;;10.50;3.03;;;;;;;9.80;67.89;98938.88;5073665;28;20115;-46
2024/02/13 03:51:03;;;;;;;9.93;5.15;;;;;;;9.80;67.71;98933.63;5073700;28;20025;-46
2024/02/13 03:53:29;;;;;;;11.93;4.60;;;;;;;9.78;67.55;98939.06;5072462;28;20024;-46
2024/02/13 03:55:55;;;;;;;9.48;3.80;;;;;;;9.74;67.41;98942.25;5072323;28;20025;-46
2024/02/13 03:58:21;;;;;;;8.80;3.30;;;;;;;9.74;67.51;98939.63;5073412;28;20104;-46
2024/02/13 04:00:50;;;;;;;13.40;5.45;;;;;;;9.67;67.57;98941.38;5073482;28;20052;-46
2024/02/13 04:03:16;;;;;;;9.27;3.65;;;;;;;9.59;67.88;98939.69;5073420;28;20021;-46
2024/02/13 04:05:42;;;;;;;8.55;3.53;;;;;;;9.57;68.37;98941.69;5073385;28;20036;-46
2024/02/13 04:08:08;;;;;;;8.18;3.15;;;;;;;9.52;68.03;98942.25;5073345;28;20029;-46
2024/02/13 04:10:38;;;;;;;10.70;4.38;;;;;;;9.46;68.29;98945.63;5073295;28;20070;-46
2024/02/13 04:13:06;;;;;;;8.65;3.95;;;;;;;9.49;68.47;98941.81;5071931;28;20040;-46
2024/02/13 04:15:35;;;;;;;9.73;3.63;;;;;;;9.51;68.46;98945.06;5073191;28;20024;-47
2024/02/13 04:18:02;;;;;;;14.50;3.88;;;;;;;9.53;68.70;98943.06;5072851;28;20123;-46
2024/02/13 04:20:28;;;;;;;12.15;3.83;;;;;;;9.48;68.76;98942.81;5071200;28;20028;-46
2024/02/13 04:22:53;;;;;;;15.20;4.10;;;;;;;9.57;68.90;98947.72;5071749;28;20024;-46
2024/02/13 04:25:19;;;;;;;13.40;3.72;;;;;;;9.64;68.54;98941.75;5071707;28;20494;-46
2024/02/13 04:27:45;;;;;;;10.55;3.75;;;;;;;9.55;68.19;98939.25;5071600;28;20526;-46
2024/02/13 04:30:14;;;;;;;16.38;4.30;;;;;;;9.14;68.00;98939.84;5072918;28;20394;-46
2024/02/13 04:32:41;;;;;;;15.52;3.55;;;;;;;8.93;69.09;98943.25;5072809;28;20494;-46
2024/02/13 04:35:08;;;;;;;25.67;5.68;;;;;;;8.78;69.45;98937.22;5071497;28;20032;-46
2024/02/13 04:37:34;;;;;;;9.60;3.92;;;;;;;8.67;70.09;98945.50;5072595;28;20021;-46
2024/02/13 04:40:00;;;;;;;13.43;3.85;;;;;;;8.47;70.06;98938.22;5071395;28;20512;-46
2024/02/13 04:42:33;;;;;;;15.10;3.63;;;;;;;8.27;70.66;98947.53;5071350;28;20117;-46
2024/02/13 04:45:00;;;;;;;15.80;3.80;;;;;;;8.25;71.08;98944.28;5054848;28;20182;-46
2024/02/13 04:47:29;;;;;;;15.43;3.80;;;;;;;8.26;71.63;98940.69;5071280;28;20379;-46
2024/02/13 04:50:00;;;;;;;8.82;3.03;;;;;;;8.29;71.87;98938.53;5071246;28;20127;-47
2024/02/13 04:52:27;;;;;;;11.25;4.03;;;;;;;8.32;72.13;98940.78;5072498;28;20025;-47
2024/02/13 04:54:57;;;;;;;10.55;3.22;;;;;;;8.27;71.99;98940.53;5072422;28;20028;-47
2024/02/13 04:57:24;;;;;;;10.30;4.43;;;;;;;8.19;71.99;98940.59;5072304;28;20095;-46
2024/02/13 04:59:50;;;;;;;15.80;4.95;;;;;;;8.08;72.06;98941.84;5072346;28;20115;-46
2024/02/13 05:02:24;;;;;;;15.35;5.05;;;;;;;8.00;72.23;98944.53;5070973;28;20116;-46
2024/02/13 05:07:36;;;;;;;10.13;4.68;;;;;;;7.55;72.34;98954.03;5072510;28;20044;-46
2024/02/13 05:10:02;;;;;;;8.45;3.83;;;;;;;7.45;73.22;98950.84;5072162;28;20491;-46
2024/02/13 05:12:28;;;;;;;17.15;8.15;;;;;;;7.23;73.34;98947.22;5070801;28;20021;-46
2024/02/13 05:14:54;;;;;;;13.85;5.78;;;;;;;7.20;73.81;98948.34;5072078;28;20074;-46
2024/02/13 05:17:23;;;;;;;9.65;4.80;;;;;;;7.23;74.40;98948.03;5071749;28;20499;-46
2024/02/13 05:19:50;;;;;;;17.50;6.70;;;;;;;7.35;74.83;98945.84;5072000;28;20036;-46
2024/02/13 05:22:16;;;;;;;11.43;6.60;;;;;;;7.57;75.45;98960.69;5070728;28;20100;-46
2024/02/13 05:24:43;;;;;;;12.93;4.72;;;;;;;7.73;75.24;98949.31;5071937;28;20038;-48
2024/02/13 05:27:09;;;;;;;9.30;4.00;;;;;;;8.04;75.80;98956.25;5071948;28;20051;-49
2024/02/13 05:29:39;;;;;;;8.35;3.95;;;;;;;8.35;75.32;98963.97;5071946;28;20231;-49
2024/02/13 05:32:06;;;;;;;12.82;4.28;;;;;;;8.55;74.83;98964.28;5071163;28;20020;-49
2024/02/13 05:34:35;;;;;;;14.75;3.65;;;;;;;8.76;74.68;98966.16;5071913;28;20024;-49
2024/02/13 05:37:05;;;;;;;20.05;4.95;;;;;;;8.96;73.82;98965.63;5071914;28;20090;-49
2024/02/13 05:39:31;;;;;;;15.02;5.43;;;;;;;9.11;73.45;98963.75;5071834;28;20016;-48
2024/02/13 05:41:57;;;;;;;36.72;25.65;;;;;;;9.24;72.87;98964.94;5070602;28;20583;-49
2024/02/13 05:44:24;;;;;;;28.15;18.77;;;;;;;9.29;72.14;98967.78;5070535;28;20024;-49
2024/02/13 05:46:50;;;;;;;14.52;4.55;;;;;;;9.21;71.35;98971.34;5071654;28;20066;-48
2024/02/13 05:49:16;;;;;;;15.57;5.45;;;;;;;8.83;70.85;98970.66;5071791;28;20028;-48
2024/02/13 05:51:45;;;;;;;10.63;5.60;;;;;;;8.28;70.47;98967.47;5071624;28;20459;-48
2024/02/13 05:54:14;;;;;;;13.77;4.35;;;;;;;7.80;70.67;98971.13;5070341;28;20103;-48
2024/02/13 05:56:40;;;;;;;11.13;4.60;;;;;;;7.44;72.19;98972.69;5071577;28;20564;-49
2024/02/13 05:59:11;;;;;;;13.63;4.10;;;;;;;7.31;73.16;98976.69;5071598;28;20020;-49
2024/02/13 06:01:37;;;;;;;13.82;5.50;;;;;;;7.00;72.56;98977.50;5071564;28;20096;-49
2024/02/13 06:04:05;;;;;;;13.65;5.00;;;;;;;6.85;73.21;98976.59;5070319;28;20108;-48
2024/02/13 06:06:36;;;;;;;16.00;5.28;;;;;;;6.80;75.14;98974.50;5071457;28;20024;-48
2024/02/13 06:09:02;;;;;;;13.60;4.95;;;;;;;6.99;75.74;98975.88;5071646;28;20029;-49
2024/02/13 06:11:28;;;;;;;13.95;5.55;;;;;;;7.06;75.31;98969.97;5071438;28;20402;-49
2024/02/13 06:13:54;;;;;;;18.10;6.13;;;;;;;6.94;74.98;98972.13;5070175;28;20032;-48
2024/02/13 06:16:20;;;;;;;12.55;4.80;;;;;;;6.85;74.75;98967.94;5070135;28;20398;-49
2024/02/13 06:18:46;;;;;;;12.05;5.22;;;;;;;6.77;74.78;98960.97;5071101;28;20154;-49
2024/02/13 06:21:14;;;;;;;18.35;9.85;;;;;;;6.63;74.42;98969.50;5071322;28;20031;-48
2024/02/13 06:23:43;;;;;;;22.02;16.55;;;;;;;6.30;75.07;98974.75;5053904;28;20459;-46
2024/02/13 06:26:09;;;;;;;16.38;7.68;;;;;;;6.17;75.63;98976.09;5071386;28;20509;-46
2024/02/13 06:28:35;;;;;;;17.30;7.55;;;;;;;5.99;75.78;98975.47;5069997;28;20025;-46
2024/02/13 06:31:03;;;;;;;15.40;11.77;;;;;;;5.74;76.12;98978.03;5071306;28;20096;-46
2024/02/13 06:33:29;;;;;;;43.78;29.50;;;;;;;5.62;76.59;98963.69;5071209;28;20029;-46
2024/02/13 06:35:55;;;;;;;25.60;17.33;;;;;;;5.69;77.42;98959.47;5071260;28;20078;-46
2024/02/13 06:38:24;;;;;;;36.80;27.20;;;;;;;5.82;77.98;98969.41;5069841;28;20402;-46
2024/02/13 06:40:52;;;;;;;111.50;100.15;;;;;;;5.91;77.03;98971.03;5071101;28;20031;-46
2024/02/13 06:43:19;;;;;;;43.47;38.88;;;;;;;5.81;76.67;98967.78;5072509;28;20482;-48
2024/02/13 06:45:45;;;;;;;14.77;7.55;;;;;;;5.70;77.38;98973.31;5074944;28;20052;-49
2024/02/13 06:48:11;;;;;;;13.43;6.22;;;;;;;5.59;78.43;98975.25;5073831;28;20573;-49
2024/02/13 06:50:37;;;;;;;13.68;7.95;;;;;;;5.59;79.09;98974.44;5073466;28;20031;-48
2024/02/13 06:53:03;;;;;;;12.43;7.72;;;;;;;5.60;78.49;98976.06;5073450;28;20021;-48
2024/02/13 06:55:29;;;;;;;13.85;5.20;;;;;;;5.63;78.61;98987.94;5074657;28;20107;-48
2024/02/13 06:57:54;;;;;;;16.65;6.70;;;;;;;5.76;79.57;98986.50;5073303;28;20031;-49
2024/02/13 07:00:20;;;;;;;15.48;5.80;;;;;;;6.11;79.28;98983.75;5074630;28;20013;-46
2024/02/13 07:02:47;;;;;;;17.05;5.68;;;;;;;6.34;77.39;98983.91;5074616;28;20028;-46
2024/02/13 07:05:13;;;;;;;17.27;6.35;;;;;;;6.12;76.51;98983.59;5074468;28;20029;-46
2024/02/13 07:07:39;;;;;;;23.27;15.25;;;;;;;5.99;77.17;98998.91;5073212;28;20739;-46
2024/02/13 07:10:05;;;;;;;11.45;6.63;;;;;;;6.13;77.18;98985.22;5073185;28;20027;-46
2024/02/13 07:12:31;;;;;;;28.75;18.20;;;;;;;6.27;76.33;98999.38;5074379;28;20028;-46
2024/02/13 07:14:57;;;;;;;10.20;5.50;;;;;;;6.30;76.30;98995.63;5073103;28;20546;-46
2024/02/13 07:17:23;;;;;;;16.17;10.63;;;;;;;6.36;75.76;98997.59;5074057;28;20036;-46
2024/02/13 07:19:50;;;;;;;12.90;7.55;;;;;;;6.43;76.08;99013.38;5073003;28;20046;-46
2024/02/13 07:22:17;;;;;;;16.10;11.10;;;;;;;6.64;75.31;99015.44;5074271;28;20032;-48
2024/02/13 07:24:43;;;;;;;19.75;7.78;;;;;;;7.30;74.75;99011.59;5073197;28;20048;-49
2024/02/13 07:27:09;;;;;;;13.25;5.93;;;;;;;7.93;72.58;99015.00;5074168;28;20028;-49
2024/02/13 07:29:40;;;;;;;10.30;5.35;;;;;;;7.98;69.82;99017.06;5074317;28;20119;-49
2024/02/13 07:32:13;;;;;;;13.05;6.80;;;;;;;8.03;69.42;99022.59;5074145;28;20558;-49
2024/02/13 07:34:40;;;;;;;16.40;8.98;;;;;;;8.26;68.67;99026.97;5074040;28;20473;-46
2024/02/13 07:37:08;;;;;;;15.90;10.07;;;;;;;8.63;67.69;99028.75;5074006;28;20016;-47
2024/02/13 07:39:35;;;;;;;17.52;10.60;;;;;;;9.14;66.89;99023.63;5073921;28;20028;-46
2024/02/13 07:42:01;;;;;;;17.80;11.02;;;;;;;9.80;65.28;99030.63;5073895;28;20077;-46
2024/02/13 07:44:29;;;;;;;15.10;8.00;;;;;;;10.22;63.69;99041.25;5073770;28;20545;-47
2024/02/13 07:46:58;;;;;;;21.90;10.32;;;;;;;10.43;61.40;99036.03;5072535;28;20099;-47
2024/02/13 07:49:26;;;;;;;14.13;6.15;;;;;;;10.04;60.84;99036.47;5072536;28;20040;-47
2024/02/13 07:51:53;;;;;;;24.00;15.95;;;;;;;9.38;62.24;99043.47;5072392;28;20486;-48
2024/02/13 07:54:22;;;;;;;28.42;24.98;;;;;;;8.89;63.90;99049.25;5072894;28;20029;-49
2024/02/13 07:56:48;;;;;;;25.25;17.25;;;;;;;8.52;64.90;99052.75;5073373;28;20027;-48
2024/02/13 07:59:14;;;;;;;10.75;5.45;;;;;;;8.13;65.66;99053.69;5073538;28;20025;-48
2024/02/13 08:01:46;;;;;;;13.45;5.75;;;;;;;8.02;66.93;99048.91;5072232;28;20118;-49
2024/02/13 08:04:12;;;;;;;12.30;6.82;;;;;;;8.05;67.56;99054.59;5073597;28;20055;-49
2024/02/13 08:06:38;;;;;;;16.50;7.13;;;;;;;8.27;67.43;99055.56;5073376;28;20490;-49
2024/02/13 08:09:07;;;;;;;17.58;6.13;;;;;;;8.63;67.26;99056.75;5073338;28;20036;-49
2024/02/13 08:11:33;;;;;;;18.33;10.85;;;;;;;9.26;66.71;99063.25;5073215;28;20074;-49
2024/02/13 08:13:59;;;;;;;33.83;22.60;;;;;;;9.97;64.89;99054.78;5071900;28;20036;-49
2024/02/13 08:16:25;;;;;;;21.05;7.70;;;;;;;10.58;63.25;99055.13;5073175;28;20017;-49
2024/02/13 08:18:50;;;;;;;20.80;6.40;;;;;;;11.30;61.77;99047.84;5072795;28;20075;-49
2024/02/13 08:21:17;;;;;;;21.75;7.28;;;;;;;12.13;60.26;99050.31;5071815;28;20025;-49
2024/02/13 08:23:43;;;;;;;18.00;6.97;;;;;;;12.94;58.45;99048.44;5071746;28;20032;-48
2024/02/13 08:26:09;;;;;;;21.50;8.55;;;;;;;14.16;56.59;99045.81;5072998;28;20095;-49
2024/02/13 08:28:37;;;;;;;17.77;6.60;;;;;;;15.19;52.79;99044.44;5072969;28;20163;-48
2024/02/13 08:31:04;;;;;;;18.55;7.28;;;;;;;16.54;49.81;99045.81;5072829;28;20016;-49
2024/02/13 08:33:30;;;;;;;22.77;7.70;;;;;;;17.54;46.86;99048.44;5072830;28;20052;-49
2024/02/13 08:35:56;;;;;;;13.27;5.63;;;;;;;17.81;41.46;99047.84;5072723;28;20129;-47
2024/02/13 08:38:22;;;;;;;23.33;6.88;;;;;;;17.45;41.41;99053.31;5072729;28;20025;-47
2024/02/13 08:40:48;;;;;;;13.15;5.97;;;;;;;16.72;43.30;99054.69;5071369;28;20103;-47
2024/02/13 08:43:14;;;;;;;17.92;5.75;;;;;;;16.40;44.22;99048.91;5072684;28;20107;-47
2024/02/13 08:45:40;;;;;;;13.57;6.57;;;;;;;16.33;44.79;99057.78;5072626;28;20449;-47
2024/02/13 08:48:06;;;;;;;14.63;5.38;;;;;;;16.58;44.35;99054.13;5072828;28;20112;-45
2024/02/13 08:50:32;;;;;;;15.60;6.22;;;;;;;16.27;44.50;99050.75;5071192;28;20075;-45
2024/02/13 08:52:58;;;;;;;14.00;5.97;;;;;;;15.88;44.59;99057.47;5072499;28;20047;-45
2024/02/13 08:55:25;;;;;;;11.52;5.40;;;;;;;16.04;44.59;99063.97;5072429;28;20031;-45
2024/02/13 08:57:54;;;;;;;11.43;5.20;;;;;;;17.04;43.03;99059.63;5072247;28;20055;-45
2024/02/13 09:00:20;;;;;;;10.93;6.07;;;;;;;18.21;41.74;99058.41;5072315;28;20378;-45
2024/02/13 09:02:47;;;;;;;10.65;6.25;;;;;;;19.46;39.22;99058.03;5072278;28;20123;-45
2024/02/13 09:05:14;;;;;;;14.95;5.70;;;;;;;20.80;38.04;99054.66;5070969;28;20031;-45
2024/02/13 09:07:41;;;;;;;12.63;5.00;;;;;;;21.51;35.86;99050.72;5071988;28;20088;-45
2024/02/13 09:10:12;;;;;;;15.10;5.72;;;;;;;21.90;34.66;99050.28;5070837;28;20096;-47
2024/02/13 09:12:45;;;;;;;14.45;5.93;;;;;;;21.87;34.60;99054.28;5072059;28;20036;-47
2024/02/13 09:15:11;;;;;;;12.77;6.00;;;;;;;22.19;34.25;99055.88;5070757;28;20024;-47
2024/02/13 09:17:46;;;;;;;11.60;4.60;;;;;;;22.30;33.45;99048.72;5071619;28;20470;-45
2024/02/13 09:20:16;;;;;;;17.60;5.80;;;;;;;21.45;33.60;99062.44;5072055;28;20016;-45
2024/02/13 09:22:44;;;;;;;14.90;6.05;;;;;;;20.51;34.72;99057.66;5072024;28;20029;-45
2024/02/13 09:25:16;;;;;;;11.77;4.78;;;;;;;19.65;36.35;99065.69;5071994;28;20023;-45
2024/02/13 09:27:43;;;;;;;11.98;5.10;;;;;;;19.96;36.95;99064.16;5071920;28;20406;-45
2024/02/13 09:30:12;;;;;;;7.65;4.07;;;;;;;21.22;35.01;99063.69;5071919;28;20017;-45
2024/02/13 09:32:42;;;;;;;11.43;4.32;;;;;;;22.07;34.14;99066.03;5071833;28;20032;-46
2024/02/13 09:35:08;;;;;;;16.92;5.38;;;;;;;22.64;32.56;99065.00;5071921;28;20025;-46
2024/02/13 09:37:42;;;;;;;8.70;3.30;;;;;;;22.56;32.55;99064.72;5071813;28;20056;-45
2024/02/13 09:40:13;;;;;;;9.55;3.53;;;;;;;21.80;33.41;99074.31;5071841;28;20409;-44
2024/02/13 09:42:46;;;;;;;7.15;3.20;;;;;;;21.25;34.54;99077.31;5071843;28;20029;-45
2024/02/13 09:45:13;;;;;;;11.32;3.83;;;;;;;22.04;32.81;99080.75;5071799;28;20027;-47
2024/02/13 09:47:40;;;;;;;9.90;3.75;;;;;;;22.48;32.21;99076.78;5071645;28;20039;-47
2024/02/13 09:50:11;;;;;;;16.83;3.85;;;;;;;22.23;32.70;99078.34;5070364;28;20108;-47
2024/02/13 09:52:42;;;;;;;12.68;3.20;;;;;;;22.66;31.55;99083.47;5071756;28;20036;-47
2024/02/13 09:55:10;;;;;;;9.95;3.28;;;;;;;22.68;31.06;99084.78;5071673;28;20036;-47
2024/02/13 09:57:39;;;;;;;7.80;3.15;;;;;;;23.02;31.21;99083.38;5071536;28;20026;-48
2024/02/13 10:00:08;;;;;;;7.85;3.00;;;;;;;23.53;30.83;99085.88;5070306;28;20021;-47
2024/02/13 10:02:40;;;;;;;14.07;3.75;;;;;;;24.10;29.79;99081.78;5071501;28;20027;-47
2024/02/13 10:05:09;;;;;;;11.52;3.42;;;;;;;24.65;29.43;99078.13;5070295;28;20020;-47
2024/02/13 10:07:37;;;;;;;12.52;3.85;;;;;;;25.07;29.05;99071.25;5071494;28;20040;-47
2024/02/13 10:10:08;;;;;;;14.63;3.53;;;;;;;25.25;28.36;99081.28;5071403;28;20062;-47
2024/02/13 10:12:34;;;;;;;12.20;3.88;;;;;;;25.54;28.05;99071.50;5071533;28;20032;-48
2024/02/13 10:15:00;;;;;;;11.73;3.45;;;;;;;25.73;27.75;99076.88;5071416;28;20025;-47
2024/02/13 10:17:28;;;;;;;12.68;3.50;;;;;;;25.68;27.62;99077.75;5071179;28;20064;-47
2024/02/13 10:19:53;;;;;;;9.25;3.13;;;;;;;25.98;27.50;99081.09;5074236;28;20037;-47
2024/02/13 10:22:20;;;;;;;16.67;4.22;;;;;;;26.35;27.23;99082.94;5074080;28;20448;-48
2024/02/13 10:24:54;;;;;;;8.45;3.85;;;;;;;26.35;27.31;99090.22;5075302;28;20397;-48
2024/02/13 10:27:20;;;;;;;16.77;4.10;;;;;;;26.53;27.13;99085.88;5075434;28;20119;-48
2024/02/13 10:29:45;;;;;;;12.77;3.35;;;;;;;26.63;26.99;99088.44;5073965;28;20566;-48
2024/02/13 10:32:11;;;;;;;11.68;3.30;;;;;;;26.95;26.45;99081.38;5075485;28;20021;-47
2024/02/13 10:34:38;;;;;;;15.40;3.28;;;;;;;27.30;25.76;99091.44;5073845;28;20037;-47
2024/02/13 10:37:08;;;;;;;9.68;3.20;;;;;;;26.95;26.28;99087.56;5075258;28;20017;-47
2024/02/13 10:39:36;;;;;;;12.25;3.22;;;;;;;26.23;26.39;99094.16;5075005;28;20021;-48
2024/02/13 10:42:10;;;;;;;8.00;3.45;;;;;;;25.06;27.43;99107.25;5073671;28;20104;-48
2024/02/13 10:44:43;;;;;;;9.55;3.30;;;;;;;24.17;28.94;99104.81;5075101;28;20478;-47
2024/02/13 10:47:15;;;;;;;6.10;3.10;;;;;;;23.86;29.20;99108.47;5075198;28;20440;-47
2024/02/13 10:49:53;;;;;;;15.02;5.80;;;;;;;24.36;29.10;99108.41;5074934;28;20025;-47
2024/02/13 10:52:21;;;;;;;16.83;9.32;;;;;;;24.81;28.61;99101.06;5073520;28;20040;-47
2024/02/13 10:54:49;;;;;;;16.75;8.73;;;;;;;25.17;28.34;99091.81;5074976;28;20040;-48
2024/02/13 10:57:16;;;;;;;7.93;3.30;;;;;;;25.35;27.86;99090.28;5074740;28;20024;-47
2024/02/13 10:59:45;;;;;;;8.23;3.53;;;;;;;25.31;27.81;99087.38;5074705;28;20036;-47
2024/02/13 11:02:20;;;;;;;11.48;7.30;;;;;;;24.85;28.21;99090.53;5074666;28;20099;-47
2024/02/13 11:04:48;;;;;;;11.30;3.50;;;;;;;23.90;29.12;99085.44;5074680;28;20060;-47
2024/02/13 11:07:16;;;;;;;7.75;3.45;;;;;;;23.20;30.23;99096.19;5074493;28;20028;-45
2024/02/13 11:09:43;;;;;;;10.30;3.33;;;;;;;23.11;30.60;99095.16;5073204;28;20025;-45
2024/02/13 11:12:09;;;;;;;9.50;3.30;;;;;;;23.63;30.04;99096.53;5073188;28;20544;-46
2024/02/13 11:14:38;;;;;;;10.95;3.15;;;;;;;22.85;30.10;99095.19;5073447;28;20032;-46
2024/02/13 11:17:11;;;;;;;8.38;3.08;;;;;;;22.82;30.87;99086.88;5074096;28;20070;-46
2024/02/13 11:19:46;;;;;;;8.05;3.15;;;;;;;23.08;30.53;99093.81;5074389;28;20024;-46
2024/02/13 11:22:15;;;;;;;9.85;3.10;;;;;;;23.61;30.31;99087.97;5073051;28;20032;-47
2024/02/13 11:25:00;;;;;;;6.75;3.03;;;;;;;24.25;29.28;99085.44;5074269;28;20514;-48
2024/02/13 11:27:26;;;;;;;11.27;3.03;;;;;;;23.49;29.98;99087.50;5074576;28;20024;-47
2024/02/13 11:30:06;;;;;;;13.15;3.40;;;;;;;23.82;30.05;99077.16;5072841;28;20029;-47
2024/02/13 11:32:39;;;;;;;9.32;3.55;;;;;;;24.95;28.67;99081.59;5074140;28;20490;-48